Dades de l'estació automàtica Horta de Sant Joan
Resum diari
17:30 TU| Temperatura mitjana | 14.7 °C | |
|---|---|---|
| Temperatura màxima | 17.3 °C | 13:48 TU |
| Temperatura mínima | 13.2 °C | 2:38 TU |
| Humitat relativa mitjana | 77% | |
| Precipitació acumulada | 1.0 mm | |
| Ratxa màxima del vent (10 m) | 53.6 km/h - 129º | 12:33 TU |
| Pressió atmosfèrica mitjana | 1014.6 hPa | |
| Irradiació solar global | 11.2 MJ/m2 | |
El tram horari està expressat en Temps Universal (TU). Cal sumar una hora en horari d'hivern i dues en horari d'estiu per passar a l'hora oficial.
Horta de Sant Joan
| Municipi | Horta de Sant Joan |
|---|---|
| Comarca | Terra Alta |
| Altitud | 517 m |
| Data alta | 28.01.1998 |
| Estat actual | Operativa |
| Període TU |
TM °C |
TX °C |
TN °C |
HRM % |
PPT mm |
VVM (10 m) km/h |
DVM (10 m) graus |
VVX (10 m) km/h |
PM hPa |
RS W/m2 |
|---|---|---|---|---|---|---|---|---|---|---|
| 00:00 - 00:30 | 13.9 | 14.0 | 13.8 | 82 | 0.0 | 13.7 | 109 | 22.7 | 1017.6 | 0 |
| 00:30 - 01:00 | 13.9 | 14.0 | 13.9 | 82 | 0.0 | 12.2 | 105 | 22.3 | 1017.3 | 0 |
| 01:00 - 01:30 | 13.9 | 14.0 | 13.8 | 83 | 0.0 | 14.0 | 105 | 24.5 | 1016.8 | 0 |
| 01:30 - 02:00 | 13.6 | 13.8 | 13.4 | 84 | 0.0 | 18.7 | 107 | 31.0 | 1016.3 | 0 |
| 02:00 - 02:30 | 13.3 | 13.4 | 13.3 | 83 | 0.0 | 20.9 | 117 | 35.3 | 1016.0 | 0 |
| 02:30 - 03:00 | 13.3 | 13.4 | 13.2 | 83 | 0.0 | 16.6 | 121 | 33.1 | 1015.8 | 0 |
| 03:00 - 03:30 | 13.5 | 13.6 | 13.3 | 82 | 0.0 | 11.2 | 111 | 20.9 | 1015.3 | 0 |
| 03:30 - 04:00 | 13.6 | 13.7 | 13.4 | 80 | 0.0 | 10.1 | 111 | 19.1 | 1015.0 | 0 |
| 04:00 - 04:30 | 13.5 | 13.6 | 13.5 | 78 | 0.0 | 10.4 | 116 | 18.0 | 1014.8 | 0 |
| 04:30 - 05:00 | 13.7 | 13.8 | 13.4 | 75 | 0.0 | 11.5 | 120 | 21.2 | 1014.8 | 0 |
| 05:00 - 05:30 | 13.5 | 13.8 | 13.4 | 74 | 0.0 | 10.4 | 126 | 21.2 | 1014.8 | 25 |
| 05:30 - 06:00 | 13.8 | 14.1 | 13.6 | 74 | 0.0 | 4.3 | 69 | 16.2 | 1014.9 | 62 |
| 06:00 - 06:30 | 14.4 | 14.8 | 14.0 | 69 | 0.0 | 11.9 | 126 | 22.0 | 1014.9 | 90 |
| 06:30 - 07:00 | 15.1 | 15.2 | 14.9 | 68 | 0.0 | 14.0 | 120 | 24.8 | 1014.7 | 122 |
| 07:00 - 07:30 | 15.4 | 15.6 | 15.2 | 67 | 0.0 | 10.8 | 121 | 25.2 | 1014.7 | 146 |
| 07:30 - 08:00 | 15.2 | 15.3 | 15.1 | 74 | 0.0 | 12.6 | 126 | 25.6 | 1014.9 | 162 |
| 08:00 - 08:30 | 15.4 | 15.6 | 15.1 | 75 | 0.0 | 12.6 | 121 | 23.8 | 1014.7 | 196 |
| 08:30 - 09:00 | 15.3 | 15.6 | 15.2 | 77 | 0.0 | 11.5 | 130 | 25.6 | 1015.2 | 219 |
| 09:00 - 09:30 | 15.2 | 15.5 | 14.9 | 79 | 0.0 | 17.3 | 126 | 33.5 | 1015.4 | 260 |
| 09:30 - 10:00 | 14.8 | 15.0 | 14.7 | 79 | 0.0 | 15.1 | 132 | 36.0 | 1015.7 | 232 |
| 10:00 - 10:30 | 14.9 | 15.1 | 14.6 | 80 | 0.1 | 10.8 | 124 | 20.5 | 1015.7 | 207 |
| 10:30 - 11:00 | 14.2 | 14.6 | 13.7 | 88 | 0.3 | 14.8 | 120 | 31.0 | 1015.5 | 157 |
| 11:00 - 11:30 | 13.7 | 14.0 | 13.6 | 94 | 0.5 | 16.2 | 117 | 28.1 | 1014.8 | 183 |
| 11:30 - 12:00 | 14.2 | 14.5 | 14.0 | 92 | 0.1 | 18.7 | 128 | 39.6 | 1014.2 | 434 |
| 12:00 - 12:30 | 14.0 | 14.4 | 13.7 | 90 | 0.0 | 22.3 | 125 | 46.4 | 1014.2 | 484 |
| 12:30 - 13:00 | 14.9 | 15.9 | 14.2 | 83 | 0.0 | 23.4 | 129 | 53.6 | 1013.6 | 749 |
| 13:00 - 13:30 | 15.6 | 16.8 | 14.8 | 74 | 0.0 | 16.2 | 131 | 33.8 | 1013.2 | 589 |
| 13:30 - 14:00 | 16.4 | 17.3 | 15.8 | 71 | 0.0 | 16.9 | 131 | 34.9 | 1012.8 | 638 |
| 14:00 - 14:30 | 16.0 | 16.3 | 15.7 | 73 | 0.0 | 18.4 | 123 | 36.4 | 1012.8 | 352 |
| 14:30 - 15:00 | 15.8 | 16.0 | 15.7 | 70 | 0.0 | 16.2 | 125 | 30.2 | 1012.3 | 256 |
| 15:00 - 15:30 | 15.8 | 15.8 | 15.7 | 68 | 0.0 | 4.3 | 174 | 20.2 | 1012.7 | 101 |
| 15:30 - 16:00 | 16.1 | 16.4 | 15.8 | 66 | 0.0 | 5.8 | 88 | 13.7 | 1012.7 | 156 |
| 16:00 - 16:30 | 16.4 | 16.5 | 16.3 | 61 | 0.0 | 4.7 | 93 | 9.4 | 1012.4 | 154 |
| 16:30 - 17:00 | 16.3 | 16.5 | 16.1 | 63 | 0.0 | 7.6 | 115 | 16.2 | 1012.5 | 142 |
| 17:00 - 17:30 | 15.4 | 16.1 | 14.6 | 78 | 0.0 | 14.8 | 124 | 28.8 | 1012.7 | 79 |
| 17:30 - 18:00 | 14.3 | 14.6 | 14.2 | 85 | 0.0 | 15.5 | 130 | 27.7 | 1012.9 | 31 |
Les dades en taronja només han passat un control de qualitat automàtic. Resta pendent la seva validació definitiva.